createdAt,value
2022-11-15T00:02:02.362Z,100.00
2022-11-15T00:04:48.707Z,100.00
2022-11-15T00:07:54.698Z,100.00
2022-11-15T00:10:41.899Z,100.00
2022-11-15T00:13:28.691Z,100.00
2022-11-15T00:16:15.083Z,100.00
2022-11-15T00:19:00.912Z,100.00
2022-11-15T00:21:49.941Z,100.00
2022-11-15T00:24:36.193Z,100.00
2022-11-15T00:27:22.239Z,100.00
2022-11-15T00:30:08.856Z,100.00
2022-11-15T00:32:57.365Z,100.00
2022-11-15T00:35:43.624Z,100.00
2022-11-15T00:38:34.608Z,100.00
2022-11-15T00:41:20.693Z,100.00
2022-11-15T00:44:07.338Z,100.00
2022-11-15T00:46:55.888Z,100.00
2022-11-15T00:49:43.811Z,100.00
2022-11-15T00:52:30.455Z,100.00
2022-11-15T00:55:17.489Z,100.00
2022-11-15T00:58:03.700Z,100.00
2022-11-15T01:00:51.314Z,100.00
2022-11-15T01:03:38.553Z,100.00
2022-11-15T01:06:24.868Z,100.00
2022-11-15T01:09:12.106Z,100.00
2022-11-15T01:11:58.522Z,100.00
2022-11-15T01:14:45.391Z,100.00
2022-11-15T01:17:31.797Z,100.00
2022-11-15T01:20:18.140Z,100.00
2022-11-15T01:23:04.835Z,100.00
2022-11-15T01:25:51.212Z,100.00
2022-11-15T01:28:38.576Z,100.00
2022-11-15T01:31:24.611Z,100.00
2022-11-15T01:34:10.778Z,100.00
2022-11-15T01:37:02.588Z,100.00
2022-11-15T01:39:49.037Z,100.00
2022-11-15T01:42:36.039Z,100.00
2022-11-15T01:45:22.486Z,100.00
2022-11-15T01:48:09.088Z,100.00
2022-11-15T01:50:55.132Z,100.00
2022-11-15T01:53:43.059Z,100.00
2022-11-15T01:56:30.700Z,100.00
2022-11-15T01:59:16.688Z,100.00
2022-11-15T02:02:03.782Z,100.00
2022-11-15T02:04:50.092Z,100.00
2022-11-15T02:07:36.673Z,100.00
2022-11-15T02:10:25.146Z,100.00
2022-11-15T02:13:11.583Z,100.00
2022-11-15T02:16:27.027Z,100.00
2022-11-15T02:19:34.938Z,100.00
2022-11-15T02:22:44.729Z,100.00
2022-11-15T02:25:52.651Z,100.00
2022-11-15T02:28:46.948Z,100.00
2022-11-15T02:31:47.999Z,100.00
2022-11-15T02:35:13.444Z,100.00
2022-11-15T02:38:28.193Z,100.00
2022-11-15T02:41:18.023Z,100.00
2022-11-15T02:44:09.175Z,100.00
2022-11-15T02:47:14.984Z,100.00
2022-11-15T02:50:08.347Z,100.00
2022-11-15T02:52:56.217Z,100.00
2022-11-15T02:55:47.404Z,100.00
2022-11-15T02:59:04.252Z,100.00
2022-11-15T03:01:53.704Z,100.00
2022-11-15T03:04:50.663Z,100.00
2022-11-15T03:07:42.112Z,100.00
2022-11-15T03:10:37.456Z,100.00
2022-11-15T03:13:28.179Z,100.00
2022-11-15T03:16:27.646Z,100.00
2022-11-15T03:19:49.457Z,100.00
2022-11-15T03:22:40.445Z,100.00
2022-11-15T03:25:27.180Z,100.00
2022-11-15T03:28:16.193Z,100.00
2022-11-15T03:31:02.793Z,100.00
2022-11-15T03:33:50.059Z,100.00
2022-11-15T03:36:35.947Z,100.00
2022-11-15T03:39:21.993Z,100.00
2022-11-15T03:42:13.907Z,100.00
2022-11-15T03:45:04.383Z,100.00
2022-11-15T03:47:53.134Z,100.00
2022-11-15T03:50:39.215Z,100.00
2022-11-15T03:53:25.564Z,100.00
2022-11-15T03:56:11.725Z,100.00
2022-11-15T03:58:57.906Z,100.00
2022-11-15T04:01:46.149Z,100.00
2022-11-15T04:04:32.232Z,100.00
2022-11-15T04:07:18.657Z,100.00
2022-11-15T04:10:06.703Z,100.00
2022-11-15T04:12:52.918Z,100.00
2022-11-15T04:15:40.163Z,100.00
2022-11-15T04:18:26.825Z,100.00
2022-11-15T04:21:31.670Z,100.00
2022-11-15T04:24:18.872Z,100.00
2022-11-15T04:27:04.773Z,100.00
2022-11-15T04:29:51.232Z,100.00
2022-11-15T04:32:37.224Z,100.00
2022-11-15T04:35:23.626Z,100.00
2022-11-15T04:38:10.283Z,100.00
2022-11-15T04:40:56.197Z,100.00
2022-11-15T04:43:45.059Z,100.00
2022-11-15T04:46:31.241Z,100.00
2022-11-15T04:49:17.020Z,100.00
2022-11-15T04:52:03.369Z,100.00
2022-11-15T04:54:49.745Z,100.00
2022-11-15T04:57:37.469Z,100.00
2022-11-15T05:00:23.449Z,100.00
2022-11-15T05:03:28.912Z,100.00
2022-11-15T05:06:15.135Z,100.00
2022-11-15T05:09:01.954Z,100.00
2022-11-15T05:11:48.488Z,100.00
2022-11-15T05:14:34.717Z,100.00
2022-11-15T05:17:21.805Z,100.00
2022-11-15T05:20:08.515Z,100.00
2022-11-15T05:22:55.449Z,100.00
2022-11-15T05:25:41.747Z,100.00
2022-11-15T05:28:28.357Z,100.00
2022-11-15T05:31:16.068Z,100.00
2022-11-15T05:34:02.513Z,100.00
2022-11-15T05:36:48.898Z,100.00
2022-11-15T05:39:36.207Z,100.00
2022-11-15T05:42:22.419Z,100.00
2022-11-15T05:45:09.057Z,100.00
2022-11-15T05:47:55.465Z,100.00
2022-11-15T05:50:43.224Z,100.00
2022-11-15T05:53:29.724Z,100.00
2022-11-15T05:56:34.702Z,100.00
2022-11-15T05:59:20.638Z,100.00
2022-11-15T06:02:07.104Z,100.00
2022-11-15T06:04:53.314Z,100.00
2022-11-15T06:07:39.617Z,100.00
2022-11-15T06:10:25.703Z,100.00
2022-11-15T06:13:17.147Z,100.00
2022-11-15T06:16:03.506Z,100.00
2022-11-15T06:18:52.054Z,100.00
2022-11-15T06:21:38.325Z,100.00
2022-11-15T06:24:24.949Z,100.00
2022-11-15T06:27:12.340Z,100.00
2022-11-15T06:29:58.685Z,100.00
2022-11-15T06:32:44.766Z,100.00
2022-11-15T06:35:31.172Z,100.00
2022-11-15T06:38:17.766Z,100.00
2022-11-15T06:41:05.562Z,100.00
2022-11-15T06:43:51.582Z,100.00
2022-11-15T06:46:37.590Z,100.00
2022-11-15T06:49:23.877Z,100.00
2022-11-15T06:52:09.986Z,100.00
2022-11-15T06:54:56.400Z,100.00
2022-11-15T06:57:52.332Z,100.00
2022-11-15T07:00:39.628Z,100.00
2022-11-15T07:03:26.079Z,100.00
2022-11-15T07:06:12.520Z,100.00
2022-11-15T07:08:58.871Z,100.00
2022-11-15T07:11:45.044Z,100.00
2022-11-15T07:14:32.645Z,100.00
2022-11-15T07:17:19.885Z,100.00
2022-11-15T07:20:06.596Z,99.76
2022-11-15T07:22:52.709Z,99.95
2022-11-15T07:25:40.685Z,97.58
2022-11-15T07:28:27.959Z,96.70
2022-11-15T07:31:14.372Z,97.14
2022-11-15T07:34:01.208Z,97.00
2022-11-15T07:36:47.590Z,95.19
2022-11-15T07:39:33.918Z,95.81
2022-11-15T07:42:38.271Z,95.55
2022-11-15T07:45:24.681Z,95.34
2022-11-15T07:48:10.449Z,94.56
2022-11-15T07:50:56.774Z,93.95
2022-11-15T07:53:43.858Z,92.12
2022-11-15T07:56:30.149Z,90.67
2022-11-15T07:59:16.732Z,89.63
2022-11-15T08:02:03.202Z,88.97
2022-11-15T08:04:49.612Z,88.13
2022-11-15T08:07:41.304Z,86.05
2022-11-15T08:10:28.152Z,86.72
2022-11-15T08:13:14.280Z,83.99
2022-11-15T08:16:02.021Z,83.93
2022-11-15T08:18:48.087Z,81.67
2022-11-15T08:21:46.529Z,83.36
2022-11-15T08:24:36.295Z,82.76
2022-11-15T08:27:23.538Z,81.99
2022-11-15T08:30:10.044Z,83.29
2022-11-15T08:32:57.621Z,82.88
2022-11-15T08:35:43.876Z,83.14
2022-11-15T08:38:31.002Z,81.57
2022-11-15T08:41:25.373Z,82.07
2022-11-15T08:44:11.473Z,82.02
2022-11-15T08:46:57.802Z,80.56
2022-11-15T08:49:43.830Z,81.15
2022-11-15T08:52:30.111Z,81.09
2022-11-15T08:55:17.628Z,79.54
2022-11-15T08:58:05.111Z,77.59
2022-11-15T09:00:53.015Z,76.84
2022-11-15T09:03:41.614Z,74.63
2022-11-15T09:06:28.377Z,76.13
2022-11-15T09:09:14.342Z,76.27
2022-11-15T09:12:02.756Z,75.32
2022-11-15T09:14:50.019Z,74.45
2022-11-15T09:17:36.320Z,75.00
2022-11-15T09:20:23.049Z,74.41
2022-11-15T09:23:09.353Z,74.49
2022-11-15T09:26:00.129Z,73.03
2022-11-15T09:28:47.501Z,72.48
2022-11-15T09:31:33.846Z,71.79
2022-11-15T09:34:22.213Z,72.22
2022-11-15T09:37:08.467Z,72.54
2022-11-15T09:39:54.925Z,71.85
2022-11-15T09:43:23.434Z,71.23
2022-11-15T09:46:24.170Z,70.08
2022-11-15T09:49:21.146Z,70.21
2022-11-15T09:52:03.785Z,67.86
2022-11-15T09:54:55.490Z,68.79
2022-11-15T09:57:50.517Z,67.24
2022-11-15T10:03:18.360Z,67.84
2022-11-15T10:05:50.061Z,67.96
2022-11-15T10:08:32.618Z,66.80
2022-11-15T10:11:39.495Z,65.92
2022-11-15T10:14:15.676Z,65.36
2022-11-15T10:17:18.423Z,65.26
2022-11-15T10:20:07.180Z,65.49
2022-11-15T10:22:53.095Z,65.50
2022-11-15T10:25:25.157Z,65.61
2022-11-15T10:28:22.798Z,65.01
2022-11-15T10:31:02.068Z,65.01
2022-11-15T10:33:41.264Z,63.99
2022-11-15T10:36:18.900Z,64.75
2022-11-15T10:38:49.871Z,64.08
2022-11-15T10:41:32.439Z,63.04
2022-11-15T10:44:12.378Z,61.92
2022-11-15T10:46:48.874Z,63.46
2022-11-15T10:49:21.376Z,63.00
2022-11-15T10:51:56.901Z,62.46
2022-11-15T10:54:50.844Z,62.82
2022-11-15T10:57:23.759Z,62.13
2022-11-15T10:59:54.049Z,62.64
2022-11-15T11:02:54.089Z,62.79
2022-11-15T11:05:41.220Z,63.01
2022-11-15T11:08:12.493Z,62.79
2022-11-15T11:11:01.564Z,63.08
2022-11-15T11:13:33.086Z,63.55
2022-11-15T11:16:16.300Z,63.99
2022-11-15T11:19:02.584Z,64.45
2022-11-15T11:21:52.706Z,64.67
2022-11-15T11:24:29.274Z,64.21
2022-11-15T11:27:15.311Z,63.82
2022-11-15T11:30:10.880Z,63.51
2022-11-15T11:33:04.709Z,63.75
2022-11-15T11:35:51.914Z,63.82
2022-11-15T11:38:34.880Z,63.65
2022-11-15T11:41:14.904Z,62.77
2022-11-15T11:44:02.811Z,62.11
2022-11-15T11:46:57.774Z,60.24
2022-11-15T11:49:32.456Z,60.74
2022-11-15T11:52:09.788Z,60.97
2022-11-15T11:54:49.378Z,60.74
2022-11-15T11:57:39.650Z,60.60
2022-11-15T12:00:23.659Z,59.71
2022-11-15T12:03:26.498Z,60.49
2022-11-15T12:06:21.282Z,60.39
2022-11-15T12:08:57.755Z,60.11
2022-11-15T12:11:30.362Z,59.42
2022-11-15T12:14:00.940Z,59.12
2022-11-15T12:16:32.291Z,57.91
2022-11-15T12:19:05.788Z,58.35
2022-11-15T12:21:53.543Z,59.04
2022-11-15T12:24:36.358Z,56.63
2022-11-15T12:27:10.013Z,57.16
2022-11-15T12:29:44.569Z,57.63
2022-11-15T12:32:26.839Z,57.18
2022-11-15T12:34:54.433Z,56.91
2022-11-15T12:37:38.803Z,57.54
2022-11-15T12:40:22.151Z,57.84
2022-11-15T12:43:15.105Z,56.69
2022-11-15T12:45:44.375Z,56.83
2022-11-15T12:48:18.340Z,56.68
2022-11-15T12:50:52.092Z,56.47
2022-11-15T12:53:25.830Z,57.10
2022-11-15T12:56:05.596Z,57.64
2022-11-15T12:58:47.639Z,58.44
2022-11-15T13:01:33.788Z,58.76
2022-11-15T13:04:19.883Z,59.20
2022-11-15T13:06:50.879Z,59.06
2022-11-15T13:09:37.684Z,60.05
2022-11-15T13:12:15.514Z,60.87
2022-11-15T13:14:52.463Z,61.51
2022-11-15T13:17:20.040Z,62.57
2022-11-15T13:19:49.193Z,63.38
2022-11-15T13:22:35.256Z,63.96
2022-11-15T13:25:02.865Z,65.02
2022-11-15T13:27:31.180Z,65.44
2022-11-15T13:29:58.717Z,66.66
2022-11-15T13:32:26.780Z,67.14
2022-11-15T13:34:54.419Z,67.79
2022-11-15T13:37:21.990Z,68.34
2022-11-15T13:39:50.006Z,68.58
2022-11-15T13:42:20.982Z,68.75
2022-11-15T13:45:00.027Z,69.76
2022-11-15T13:47:28.791Z,70.86
2022-11-15T13:50:00.230Z,70.68
2022-11-15T13:52:34.349Z,72.27
2022-11-15T13:55:14.431Z,72.14
2022-11-15T13:57:46.732Z,72.47
2022-11-15T14:00:29.582Z,72.82
2022-11-15T14:02:57.366Z,73.65
2022-11-15T14:05:25.545Z,73.91
2022-11-15T14:07:59.212Z,74.23
2022-11-15T14:10:35.546Z,75.03
2022-11-15T14:13:03.803Z,75.35
2022-11-15T14:15:34.222Z,75.89
2022-11-15T14:18:04.768Z,76.57
2022-11-15T14:20:39.130Z,77.45
2022-11-15T14:23:27.707Z,78.01
2022-11-15T14:25:58.153Z,78.70
2022-11-15T14:28:31.151Z,78.92
2022-11-15T14:30:59.848Z,79.42
2022-11-15T14:33:35.110Z,80.48
2022-11-15T14:36:07.312Z,79.97
2022-11-15T15:28:33.104Z,88.49
2022-11-15T15:31:40.976Z,88.77
2022-11-15T15:34:18.442Z,88.35
2022-11-15T15:36:53.376Z,87.84
2022-11-15T15:39:59.697Z,88.04
2022-11-15T15:42:45.459Z,87.52
2022-11-15T15:45:28.171Z,87.38
2022-11-15T15:48:01.939Z,87.60
2022-11-15T15:50:38.020Z,87.71
2022-11-15T15:53:12.749Z,87.65
2022-11-15T15:56:13.531Z,87.44
2022-11-15T15:58:55.016Z,87.94
2022-11-15T16:01:28.537Z,87.71
2022-11-15T16:04:02.647Z,88.14
2022-11-15T16:06:41.162Z,88.59
2022-11-15T16:09:22.545Z,89.05
2022-11-15T16:11:56.050Z,88.23
2022-11-15T16:14:28.169Z,88.61
2022-11-15T16:17:11.915Z,88.85
2022-11-15T16:19:55.531Z,88.72
2022-11-15T16:22:33.625Z,88.48
2022-11-15T16:25:05.477Z,88.97
2022-11-15T16:27:50.132Z,88.38
2022-11-15T16:30:44.442Z,88.44
2022-11-15T16:33:38.244Z,88.14
2022-11-15T16:36:38.553Z,87.52
2022-11-15T16:39:48.635Z,87.57
2022-11-15T16:46:26.353Z,87.20
2022-11-15T16:50:10.082Z,87.29
2022-11-15T16:53:13.286Z,87.26
2022-11-15T16:56:45.527Z,87.17
2022-11-15T16:59:27.283Z,87.04
2022-11-15T17:02:39.601Z,86.91
2022-11-15T17:05:46.338Z,87.47
2022-11-15T17:08:44.902Z,87.59
2022-11-15T17:11:25.453Z,87.34
2022-11-15T17:14:04.708Z,87.73
2022-11-15T17:16:49.270Z,87.92
2022-11-15T17:19:29.565Z,87.94
2022-11-15T17:22:02.930Z,88.20
2022-11-15T17:24:43.151Z,87.85
2022-11-15T17:27:19.226Z,88.67
2022-11-15T17:29:56.019Z,88.32
2022-11-15T17:32:45.668Z,88.19
2022-11-15T17:35:35.572Z,88.43
2022-11-15T17:38:22.046Z,88.24
2022-11-15T17:41:16.049Z,88.31
2022-11-15T17:44:07.938Z,88.12
2022-11-15T17:47:28.462Z,88.81
2022-11-15T17:50:09.991Z,88.76
2022-11-15T17:52:57.798Z,89.11
2022-11-15T17:55:45.225Z,89.11
2022-11-15T17:58:28.216Z,88.97
2022-11-15T18:01:20.309Z,89.76
2022-11-15T18:03:54.201Z,90.13
2022-11-15T18:06:24.943Z,90.93
2022-11-15T18:09:10.183Z,90.59
2022-11-15T18:11:50.834Z,90.93
2022-11-15T18:14:44.341Z,90.58
2022-11-15T18:17:14.772Z,89.91
2022-11-15T18:19:42.774Z,89.01
2022-11-15T18:22:12.890Z,88.79
2022-11-15T18:24:54.973Z,87.95
2022-11-15T18:27:26.937Z,88.39
2022-11-15T18:30:01.868Z,88.01
2022-11-15T18:32:31.521Z,88.17
2022-11-15T18:35:00.079Z,88.63
2022-11-15T18:37:33.752Z,87.69
2022-11-15T18:40:02.270Z,87.89
2022-11-15T18:42:33.204Z,87.91
2022-11-15T18:45:05.378Z,88.30
2022-11-15T18:47:38.059Z,88.53
2022-11-15T18:50:07.889Z,88.28
2022-11-15T18:52:39.248Z,88.40
2022-11-15T18:55:10.719Z,87.98
2022-11-15T18:57:39.165Z,88.24
2022-11-15T19:00:10.676Z,88.70
2022-11-15T19:02:39.804Z,88.43
2022-11-15T19:05:16.018Z,88.89
2022-11-15T19:07:45.000Z,89.38
2022-11-15T19:10:27.011Z,89.65
2022-11-15T19:13:41.581Z,89.31
2022-11-15T19:16:35.419Z,90.36
2022-11-15T19:19:10.597Z,90.37
2022-11-15T19:21:39.659Z,90.46
2022-11-15T19:24:10.975Z,90.56
2022-11-15T19:26:43.935Z,91.04
2022-11-15T19:29:18.596Z,91.53
2022-11-15T19:31:53.149Z,91.59
2022-11-15T19:34:26.502Z,91.28
2022-11-15T19:36:54.964Z,91.91
2022-11-15T19:39:23.344Z,92.33
2022-11-15T19:41:57.716Z,92.12
2022-11-15T19:44:41.240Z,91.68
2022-11-15T19:48:26.007Z,91.94
2022-11-15T19:50:30.858Z,92.25
2022-11-15T19:53:33.321Z,92.36
2022-11-15T19:56:12.149Z,93.16
2022-11-15T19:58:44.772Z,93.05
2022-11-15T20:04:32.060Z,93.11
2022-11-15T20:07:11.952Z,93.73
2022-11-15T20:09:45.443Z,93.46
2022-11-15T20:12:31.548Z,93.27
2022-11-15T20:15:08.685Z,93.70
2022-11-15T20:17:39.713Z,93.66
2022-11-15T20:20:12.360Z,94.14
2022-11-15T20:22:44.061Z,93.65
2022-11-15T20:25:13.679Z,94.06
2022-11-15T20:27:41.791Z,94.77
2022-11-15T20:30:10.711Z,94.13
2022-11-15T20:32:45.233Z,93.98
2022-11-15T20:35:40.886Z,94.42
2022-11-15T20:38:09.852Z,94.61
2022-11-15T20:40:41.808Z,94.45
2022-11-15T20:43:14.528Z,95.75
2022-11-15T20:45:54.658Z,95.08
2022-11-15T20:49:01.489Z,95.50
2022-11-15T20:51:30.055Z,95.40
2022-11-15T20:54:01.729Z,95.14
2022-11-15T20:56:29.944Z,95.73
2022-11-15T20:58:58.013Z,94.77
2022-11-15T21:01:27.486Z,95.55
2022-11-15T21:03:56.310Z,95.66
2022-11-15T21:06:25.873Z,95.74
2022-11-15T21:09:13.160Z,95.26
2022-11-15T21:11:59.979Z,95.65
2022-11-15T21:14:40.988Z,95.68
2022-11-15T21:17:15.166Z,95.37
2022-11-15T21:19:43.909Z,95.96
2022-11-15T21:22:13.354Z,95.31
2022-11-15T21:24:41.647Z,95.66
2022-11-15T21:27:09.914Z,95.67
2022-11-15T21:29:50.281Z,94.92
2022-11-15T21:32:20.990Z,95.38
2022-11-15T21:34:51.859Z,95.38
2022-11-15T21:37:19.915Z,95.95
2022-11-15T21:39:47.822Z,96.15
2022-11-15T21:42:18.419Z,96.00
2022-11-15T21:44:49.391Z,95.89
2022-11-15T21:47:17.771Z,95.96
2022-11-15T21:49:46.045Z,96.28
2022-11-15T21:52:17.245Z,95.92
2022-11-15T21:55:01.817Z,96.36
2022-11-15T21:57:32.826Z,96.77
2022-11-15T22:00:26.222Z,95.98
2022-11-15T22:02:54.793Z,95.68
2022-11-15T22:05:22.743Z,96.02
2022-11-15T22:07:50.837Z,95.74
2022-11-15T22:10:38.164Z,96.21
2022-11-15T22:13:10.158Z,96.22
2022-11-15T22:15:38.700Z,97.13
2022-11-15T22:18:09.440Z,96.55
2022-11-15T22:20:44.899Z,96.47
2022-11-15T22:23:13.311Z,97.03
2022-11-15T22:25:41.853Z,97.22
2022-11-15T22:28:09.905Z,96.89
2022-11-15T22:30:38.551Z,97.05
2022-11-15T22:33:07.541Z,96.76
2022-11-15T22:35:43.420Z,96.77
2022-11-15T22:38:11.811Z,97.09
2022-11-15T22:40:40.107Z,96.74
2022-11-15T22:43:17.401Z,96.69
2022-11-15T22:45:52.601Z,97.17
2022-11-15T22:48:21.847Z,97.01
2022-11-15T22:50:56.217Z,97.60
2022-11-15T22:53:24.856Z,97.55
2022-11-15T22:55:59.758Z,97.45
2022-11-15T22:58:40.941Z,97.46
2022-11-15T23:01:15.386Z,98.30
2022-11-15T23:03:44.169Z,97.97
2022-11-15T23:06:15.315Z,97.63
2022-11-15T23:08:47.549Z,98.23
2022-11-15T23:11:41.703Z,97.66
2022-11-15T23:14:13.543Z,98.12
2022-11-15T23:16:41.575Z,98.30
2022-11-15T23:19:11.009Z,98.08
2022-11-15T23:22:04.407Z,98.82
2022-11-15T23:24:39.429Z,98.81
2022-11-15T23:27:08.126Z,98.84
2022-11-15T23:29:58.559Z,98.38
2022-11-15T23:32:52.772Z,98.87
2022-11-15T23:35:24.183Z,99.64
2022-11-15T23:37:52.293Z,98.86
2022-11-15T23:40:20.951Z,99.63
2022-11-15T23:42:54.833Z,99.54
2022-11-15T23:45:24.246Z,99.23
2022-11-15T23:47:58.371Z,99.83
2022-11-15T23:50:29.549Z,99.44
2022-11-15T23:52:58.568Z,99.91
2022-11-15T23:55:26.970Z,100.00
2022-11-15T23:57:55.094Z,99.83
